sensor_id;sensor_type;location;lat;lon;timestamp;P1;durP1;ratioP1;P2;durP2;ratioP2
22937;SDS011;11634;42.734;23.298;2022-07-23T00:02:00;9.50;;;6.15;;
22937;SDS011;11634;42.734;23.298;2022-07-23T00:04:26;9.10;;;6.65;;
22937;SDS011;11634;42.734;23.298;2022-07-23T00:06:51;9.35;;;6.57;;
22937;SDS011;11634;42.734;23.298;2022-07-23T00:09:19;12.05;;;5.82;;
22937;SDS011;11634;42.734;23.298;2022-07-23T00:11:50;8.75;;;5.97;;
22937;SDS011;11634;42.734;23.298;2022-07-23T00:14:15;7.78;;;6.45;;
22937;SDS011;11634;42.734;23.298;2022-07-23T00:16:40;10.27;;;5.93;;
22937;SDS011;11634;42.734;23.298;2022-07-23T00:19:06;8.88;;;6.15;;
22937;SDS011;11634;42.734;23.298;2022-07-23T00:21:31;8.88;;;6.20;;
22937;SDS011;11634;42.734;23.298;2022-07-23T00:24:00;7.75;;;6.47;;
22937;SDS011;11634;42.734;23.298;2022-07-23T00:26:25;13.98;;;5.85;;
22937;SDS011;11634;42.734;23.298;2022-07-23T00:28:50;10.77;;;6.80;;
22937;SDS011;11634;42.734;23.298;2022-07-23T00:31:16;9.40;;;6.43;;
22937;SDS011;11634;42.734;23.298;2022-07-23T00:33:42;11.00;;;6.30;;
22937;SDS011;11634;42.734;23.298;2022-07-23T00:36:07;10.18;;;6.78;;
22937;SDS011;11634;42.734;23.298;2022-07-23T00:38:33;15.63;;;7.10;;
22937;SDS011;11634;42.734;23.298;2022-07-23T00:40:59;9.63;;;6.18;;
22937;SDS011;11634;42.734;23.298;2022-07-23T00:43:24;9.23;;;6.32;;
22937;SDS011;11634;42.734;23.298;2022-07-23T00:45:50;9.43;;;6.40;;
22937;SDS011;11634;42.734;23.298;2022-07-23T00:48:16;7.85;;;6.65;;
22937;SDS011;11634;42.734;23.298;2022-07-23T00:50:42;9.80;;;6.45;;
22937;SDS011;11634;42.734;23.298;2022-07-23T00:53:07;7.45;;;6.35;;
22937;SDS011;11634;42.734;23.298;2022-07-23T00:55:33;7.07;;;6.38;;
22937;SDS011;11634;42.734;23.298;2022-07-23T00:57:59;8.57;;;6.90;;
22937;SDS011;11634;42.734;23.298;2022-07-23T01:00:25;11.50;;;7.05;;
22937;SDS011;11634;42.734;23.298;2022-07-23T01:02:51;10.38;;;7.28;;
22937;SDS011;11634;42.734;23.298;2022-07-23T01:05:16;7.93;;;6.85;;
22937;SDS011;11634;42.734;23.298;2022-07-23T01:07:43;9.52;;;6.90;;
22937;SDS011;11634;42.734;23.298;2022-07-23T01:10:08;10.77;;;6.78;;
22937;SDS011;11634;42.734;23.298;2022-07-23T01:12:54;11.13;;;7.22;;
22937;SDS011;11634;42.734;23.298;2022-07-23T01:15:22;10.77;;;7.50;;
22937;SDS011;11634;42.734;23.298;2022-07-23T01:17:47;9.95;;;7.18;;
22937;SDS011;11634;42.734;23.298;2022-07-23T01:20:16;11.10;;;6.60;;
22937;SDS011;11634;42.734;23.298;2022-07-23T01:22:42;11.15;;;7.65;;
22937;SDS011;11634;42.734;23.298;2022-07-23T01:25:08;10.15;;;6.35;;
22937;SDS011;11634;42.734;23.298;2022-07-23T01:27:38;7.40;;;6.55;;
22937;SDS011;11634;42.734;23.298;2022-07-23T01:30:07;8.52;;;6.68;;
22937;SDS011;11634;42.734;23.298;2022-07-23T01:32:32;10.00;;;6.75;;
22937;SDS011;11634;42.734;23.298;2022-07-23T01:34:58;8.55;;;6.43;;
22937;SDS011;11634;42.734;23.298;2022-07-23T01:37:23;9.48;;;7.30;;
22937;SDS011;11634;42.734;23.298;2022-07-23T01:39:50;9.80;;;7.28;;
22937;SDS011;11634;42.734;23.298;2022-07-23T01:42:15;10.55;;;6.60;;
22937;SDS011;11634;42.734;23.298;2022-07-23T01:44:41;11.13;;;7.30;;
22937;SDS011;11634;42.734;23.298;2022-07-23T01:47:11;11.85;;;7.20;;
22937;SDS011;11634;42.734;23.298;2022-07-23T01:49:37;8.68;;;7.43;;
22937;SDS011;11634;42.734;23.298;2022-07-23T01:52:14;13.45;;;7.13;;
22937;SDS011;11634;42.734;23.298;2022-07-23T01:54:47;11.77;;;7.57;;
22937;SDS011;11634;42.734;23.298;2022-07-23T01:57:12;10.55;;;8.15;;
22937;SDS011;11634;42.734;23.298;2022-07-23T01:59:38;12.93;;;8.45;;
22937;SDS011;11634;42.734;23.298;2022-07-23T02:02:05;14.32;;;8.65;;
22937;SDS011;11634;42.734;23.298;2022-07-23T02:04:30;11.45;;;8.65;;
22937;SDS011;11634;42.734;23.298;2022-07-23T02:06:57;12.20;;;8.68;;
22937;SDS011;11634;42.734;23.298;2022-07-23T02:09:25;12.82;;;9.05;;
22937;SDS011;11634;42.734;23.298;2022-07-23T02:11:50;15.95;;;9.40;;
22937;SDS011;11634;42.734;23.298;2022-07-23T02:14:17;17.00;;;10.48;;
22937;SDS011;11634;42.734;23.298;2022-07-23T02:16:45;13.95;;;11.35;;
22937;SDS011;11634;42.734;23.298;2022-07-23T02:19:10;15.77;;;11.02;;
22937;SDS011;11634;42.734;23.298;2022-07-23T02:21:35;13.75;;;10.35;;
22937;SDS011;11634;42.734;23.298;2022-07-23T02:24:01;16.48;;;11.50;;
22937;SDS011;11634;42.734;23.298;2022-07-23T02:26:27;14.10;;;10.13;;
22937;SDS011;11634;42.734;23.298;2022-07-23T02:28:53;12.15;;;9.90;;
22937;SDS011;11634;42.734;23.298;2022-07-23T02:31:19;12.27;;;10.07;;
22937;SDS011;11634;42.734;23.298;2022-07-23T02:33:44;13.88;;;10.05;;
22937;SDS011;11634;42.734;23.298;2022-07-23T02:36:09;10.68;;;8.70;;
22937;SDS011;11634;42.734;23.298;2022-07-23T02:38:35;12.82;;;9.68;;
22937;SDS011;11634;42.734;23.298;2022-07-23T02:41:00;13.15;;;9.90;;
22937;SDS011;11634;42.734;23.298;2022-07-23T02:43:26;11.85;;;9.65;;
22937;SDS011;11634;42.734;23.298;2022-07-23T02:45:51;14.10;;;9.52;;
22937;SDS011;11634;42.734;23.298;2022-07-23T02:48:17;12.35;;;8.75;;
22937;SDS011;11634;42.734;23.298;2022-07-23T02:50:44;13.20;;;9.18;;
22937;SDS011;11634;42.734;23.298;2022-07-23T02:53:13;13.73;;;9.77;;
22937;SDS011;11634;42.734;23.298;2022-07-23T02:55:40;14.82;;;9.77;;
22937;SDS011;11634;42.734;23.298;2022-07-23T02:58:06;13.30;;;9.10;;
22937;SDS011;11634;42.734;23.298;2022-07-23T03:00:31;14.65;;;9.57;;
22937;SDS011;11634;42.734;23.298;2022-07-23T03:02:57;12.82;;;9.77;;
22937;SDS011;11634;42.734;23.298;2022-07-23T03:05:22;15.18;;;9.35;;
22937;SDS011;11634;42.734;23.298;2022-07-23T03:07:48;24.98;;;10.05;;
22937;SDS011;11634;42.734;23.298;2022-07-23T03:10:13;12.73;;;9.52;;
22937;SDS011;11634;42.734;23.298;2022-07-23T03:12:38;15.65;;;9.13;;
22937;SDS011;11634;42.734;23.298;2022-07-23T03:15:04;11.63;;;8.88;;
22937;SDS011;11634;42.734;23.298;2022-07-23T03:17:30;16.52;;;9.00;;
22937;SDS011;11634;42.734;23.298;2022-07-23T03:19:55;14.68;;;9.20;;
22937;SDS011;11634;42.734;23.298;2022-07-23T03:22:22;13.93;;;9.70;;
22937;SDS011;11634;42.734;23.298;2022-07-23T03:24:48;18.08;;;8.93;;
22937;SDS011;11634;42.734;23.298;2022-07-23T03:27:23;13.63;;;9.15;;
22937;SDS011;11634;42.734;23.298;2022-07-23T03:29:49;10.07;;;8.77;;
22937;SDS011;11634;42.734;23.298;2022-07-23T03:32:15;11.90;;;8.60;;
22937;SDS011;11634;42.734;23.298;2022-07-23T03:34:40;10.18;;;8.70;;
22937;SDS011;11634;42.734;23.298;2022-07-23T03:37:06;13.90;;;9.02;;
22937;SDS011;11634;42.734;23.298;2022-07-23T03:39:31;14.80;;;9.20;;
22937;SDS011;11634;42.734;23.298;2022-07-23T03:41:57;16.60;;;8.88;;
22937;SDS011;11634;42.734;23.298;2022-07-23T03:44:22;11.43;;;8.60;;
22937;SDS011;11634;42.734;23.298;2022-07-23T03:46:48;10.50;;;8.18;;
22937;SDS011;11634;42.734;23.298;2022-07-23T03:49:13;11.93;;;8.57;;
22937;SDS011;11634;42.734;23.298;2022-07-23T03:51:39;13.68;;;8.50;;
22937;SDS011;11634;42.734;23.298;2022-07-23T03:54:04;10.25;;;8.13;;
22937;SDS011;11634;42.734;23.298;2022-07-23T03:56:30;14.25;;;8.90;;
22937;SDS011;11634;42.734;23.298;2022-07-23T03:58:56;11.30;;;8.48;;
22937;SDS011;11634;42.734;23.298;2022-07-23T04:01:21;14.75;;;8.23;;
22937;SDS011;11634;42.734;23.298;2022-07-23T04:03:47;14.60;;;8.10;;
22937;SDS011;11634;42.734;23.298;2022-07-23T04:06:13;10.00;;;8.55;;
22937;SDS011;11634;42.734;23.298;2022-07-23T04:08:38;15.55;;;8.80;;
22937;SDS011;11634;42.734;23.298;2022-07-23T04:11:04;9.88;;;8.27;;
22937;SDS011;11634;42.734;23.298;2022-07-23T04:13:29;13.52;;;8.65;;
22937;SDS011;11634;42.734;23.298;2022-07-23T04:15:55;10.02;;;7.75;;
22937;SDS011;11634;42.734;23.298;2022-07-23T04:18:20;8.77;;;7.88;;
22937;SDS011;11634;42.734;23.298;2022-07-23T04:21:03;9.40;;;7.75;;
22937;SDS011;11634;42.734;23.298;2022-07-23T04:23:29;11.02;;;7.60;;
22937;SDS011;11634;42.734;23.298;2022-07-23T04:25:54;11.07;;;8.05;;
22937;SDS011;11634;42.734;23.298;2022-07-23T04:28:19;13.68;;;7.90;;
22937;SDS011;11634;42.734;23.298;2022-07-23T04:30:45;13.50;;;8.50;;
22937;SDS011;11634;42.734;23.298;2022-07-23T04:33:12;27.02;;;9.60;;
22937;SDS011;11634;42.734;23.298;2022-07-23T04:35:38;12.10;;;8.27;;
22937;SDS011;11634;42.734;23.298;2022-07-23T04:38:17;19.98;;;9.35;;
22937;SDS011;11634;42.734;23.298;2022-07-23T04:40:44;12.18;;;8.35;;
22937;SDS011;11634;42.734;23.298;2022-07-23T04:43:10;12.38;;;8.10;;
22937;SDS011;11634;42.734;23.298;2022-07-23T04:45:43;10.82;;;7.40;;
22937;SDS011;11634;42.734;23.298;2022-07-23T04:48:09;10.20;;;8.57;;
22937;SDS011;11634;42.734;23.298;2022-07-23T04:50:34;11.68;;;8.27;;
22937;SDS011;11634;42.734;23.298;2022-07-23T04:52:59;9.55;;;7.30;;
22937;SDS011;11634;42.734;23.298;2022-07-23T04:55:25;8.57;;;7.32;;
22937;SDS011;11634;42.734;23.298;2022-07-23T04:57:51;11.20;;;7.20;;
22937;SDS011;11634;42.734;23.298;2022-07-23T05:00:16;8.35;;;6.80;;
22937;SDS011;11634;42.734;23.298;2022-07-23T05:02:42;7.93;;;7.10;;
22937;SDS011;11634;42.734;23.298;2022-07-23T05:05:08;13.15;;;7.78;;
22937;SDS011;11634;42.734;23.298;2022-07-23T05:07:33;8.95;;;6.88;;
22937;SDS011;11634;42.734;23.298;2022-07-23T05:09:59;8.18;;;7.32;;
22937;SDS011;11634;42.734;23.298;2022-07-23T05:12:24;9.52;;;7.38;;
22937;SDS011;11634;42.734;23.298;2022-07-23T05:14:50;10.18;;;7.40;;
22937;SDS011;11634;42.734;23.298;2022-07-23T05:17:15;9.80;;;7.20;;
22937;SDS011;11634;42.734;23.298;2022-07-23T05:19:41;11.13;;;7.45;;
22937;SDS011;11634;42.734;23.298;2022-07-23T05:22:06;15.68;;;7.68;;
22937;SDS011;11634;42.734;23.298;2022-07-23T05:24:32;10.68;;;8.20;;
22937;SDS011;11634;42.734;23.298;2022-07-23T05:26:57;14.48;;;7.72;;
22937;SDS011;11634;42.734;23.298;2022-07-23T05:29:23;10.93;;;7.30;;
22937;SDS011;11634;42.734;23.298;2022-07-23T05:31:48;11.07;;;7.35;;
22937;SDS011;11634;42.734;23.298;2022-07-23T05:34:14;11.65;;;7.05;;
22937;SDS011;11634;42.734;23.298;2022-07-23T05:36:40;9.73;;;7.45;;
22937;SDS011;11634;42.734;23.298;2022-07-23T05:39:05;15.13;;;7.60;;
22937;SDS011;11634;42.734;23.298;2022-07-23T05:41:34;8.73;;;7.82;;
22937;SDS011;11634;42.734;23.298;2022-07-23T05:44:01;12.32;;;7.45;;
22937;SDS011;11634;42.734;23.298;2022-07-23T05:46:27;12.57;;;7.68;;
22937;SDS011;11634;42.734;23.298;2022-07-23T05:48:56;12.35;;;8.32;;
22937;SDS011;11634;42.734;23.298;2022-07-23T05:51:42;12.15;;;8.05;;
22937;SDS011;11634;42.734;23.298;2022-07-23T05:54:07;13.05;;;8.50;;
22937;SDS011;11634;42.734;23.298;2022-07-23T05:56:37;12.52;;;7.88;;
22937;SDS011;11634;42.734;23.298;2022-07-23T05:59:02;11.27;;;7.80;;
22937;SDS011;11634;42.734;23.298;2022-07-23T06:01:28;11.65;;;8.32;;
22937;SDS011;11634;42.734;23.298;2022-07-23T06:04:05;12.55;;;8.40;;
22937;SDS011;11634;42.734;23.298;2022-07-23T06:06:35;11.68;;;8.52;;
22937;SDS011;11634;42.734;23.298;2022-07-23T06:09:01;9.75;;;8.50;;
22937;SDS011;11634;42.734;23.298;2022-07-23T06:11:27;14.10;;;9.18;;
22937;SDS011;11634;42.734;23.298;2022-07-23T06:13:53;11.90;;;8.95;;
22937;SDS011;11634;42.734;23.298;2022-07-23T06:16:22;18.17;;;8.75;;
22937;SDS011;11634;42.734;23.298;2022-07-23T06:18:47;14.18;;;8.35;;
22937;SDS011;11634;42.734;23.298;2022-07-23T06:21:13;12.40;;;8.55;;
22937;SDS011;11634;42.734;23.298;2022-07-23T06:23:39;12.90;;;8.60;;
22937;SDS011;11634;42.734;23.298;2022-07-23T06:26:04;16.88;;;8.90;;
22937;SDS011;11634;42.734;23.298;2022-07-23T06:28:30;18.85;;;8.98;;
22937;SDS011;11634;42.734;23.298;2022-07-23T06:30:55;18.45;;;8.80;;
22937;SDS011;11634;42.734;23.298;2022-07-23T06:33:22;13.20;;;7.95;;
22937;SDS011;11634;42.734;23.298;2022-07-23T06:35:47;16.73;;;8.82;;
22937;SDS011;11634;42.734;23.298;2022-07-23T06:38:13;15.50;;;7.85;;
22937;SDS011;11634;42.734;23.298;2022-07-23T06:40:40;12.93;;;8.45;;
22937;SDS011;11634;42.734;23.298;2022-07-23T06:43:06;13.90;;;8.20;;
22937;SDS011;11634;42.734;23.298;2022-07-23T06:45:36;13.15;;;8.18;;
22937;SDS011;11634;42.734;23.298;2022-07-23T06:48:01;21.27;;;8.73;;
22937;SDS011;11634;42.734;23.298;2022-07-23T06:50:27;18.23;;;8.90;;
22937;SDS011;11634;42.734;23.298;2022-07-23T06:52:53;13.38;;;8.73;;
22937;SDS011;11634;42.734;23.298;2022-07-23T06:55:18;18.00;;;9.00;;
22937;SDS011;11634;42.734;23.298;2022-07-23T06:57:46;13.32;;;8.02;;
22937;SDS011;11634;42.734;23.298;2022-07-23T07:00:12;14.60;;;9.30;;
22937;SDS011;11634;42.734;23.298;2022-07-23T07:02:37;20.70;;;9.43;;
22937;SDS011;11634;42.734;23.298;2022-07-23T07:05:04;21.08;;;9.52;;
22937;SDS011;11634;42.734;23.298;2022-07-23T07:07:33;16.08;;;10.20;;
22937;SDS011;11634;42.734;23.298;2022-07-23T07:09:59;15.98;;;9.77;;
22937;SDS011;11634;42.734;23.298;2022-07-23T07:12:24;18.80;;;10.45;;
22937;SDS011;11634;42.734;23.298;2022-07-23T07:14:50;13.45;;;10.25;;
22937;SDS011;11634;42.734;23.298;2022-07-23T07:17:15;17.73;;;10.43;;
22937;SDS011;11634;42.734;23.298;2022-07-23T07:19:40;14.45;;;10.40;;
22937;SDS011;11634;42.734;23.298;2022-07-23T07:22:06;22.38;;;9.93;;
22937;SDS011;11634;42.734;23.298;2022-07-23T07:24:31;15.45;;;9.57;;
22937;SDS011;11634;42.734;23.298;2022-07-23T07:26:56;14.40;;;8.93;;
22937;SDS011;11634;42.734;23.298;2022-07-23T07:29:22;16.27;;;8.95;;
22937;SDS011;11634;42.734;23.298;2022-07-23T07:31:47;14.35;;;8.10;;
22937;SDS011;11634;42.734;23.298;2022-07-23T07:34:19;19.15;;;9.13;;
22937;SDS011;11634;42.734;23.298;2022-07-23T07:36:46;17.40;;;8.95;;
22937;SDS011;11634;42.734;23.298;2022-07-23T07:39:12;16.77;;;8.75;;
22937;SDS011;11634;42.734;23.298;2022-07-23T07:41:37;16.58;;;9.43;;
22937;SDS011;11634;42.734;23.298;2022-07-23T07:44:03;17.48;;;8.25;;
22937;SDS011;11634;42.734;23.298;2022-07-23T07:46:28;16.90;;;8.57;;
22937;SDS011;11634;42.734;23.298;2022-07-23T07:48:54;11.35;;;7.88;;
22937;SDS011;11634;42.734;23.298;2022-07-23T07:51:19;16.88;;;8.05;;
22937;SDS011;11634;42.734;23.298;2022-07-23T07:53:45;11.77;;;8.25;;
22937;SDS011;11634;42.734;23.298;2022-07-23T07:56:13;12.07;;;8.15;;
22937;SDS011;11634;42.734;23.298;2022-07-23T07:58:38;13.40;;;7.47;;
22937;SDS011;11634;42.734;23.298;2022-07-23T08:01:04;16.73;;;7.13;;
22937;SDS011;11634;42.734;23.298;2022-07-23T08:03:29;12.95;;;7.68;;
22937;SDS011;11634;42.734;23.298;2022-07-23T08:05:55;19.83;;;12.50;;
22937;SDS011;11634;42.734;23.298;2022-07-23T08:08:23;12.43;;;7.60;;
22937;SDS011;11634;42.734;23.298;2022-07-23T08:10:49;17.05;;;8.35;;
22937;SDS011;11634;42.734;23.298;2022-07-23T08:13:15;16.20;;;7.80;;
22937;SDS011;11634;42.734;23.298;2022-07-23T08:15:41;11.52;;;8.02;;
22937;SDS011;11634;42.734;23.298;2022-07-23T08:18:09;11.60;;;7.45;;
22937;SDS011;11634;42.734;23.298;2022-07-23T08:20:41;13.93;;;7.40;;
22937;SDS011;11634;42.734;23.298;2022-07-23T08:23:07;8.93;;;7.57;;
22937;SDS011;11634;42.734;23.298;2022-07-23T08:25:34;11.82;;;7.68;;
22937;SDS011;11634;42.734;23.298;2022-07-23T08:28:00;13.40;;;7.75;;
22937;SDS011;11634;42.734;23.298;2022-07-23T08:30:26;12.30;;;8.05;;
22937;SDS011;11634;42.734;23.298;2022-07-23T08:35:17;11.82;;;7.78;;
22937;SDS011;11634;42.734;23.298;2022-07-23T08:37:43;15.63;;;6.93;;
22937;SDS011;11634;42.734;23.298;2022-07-23T08:40:08;14.63;;;7.22;;
22937;SDS011;11634;42.734;23.298;2022-07-23T08:42:34;11.20;;;7.28;;
22937;SDS011;11634;42.734;23.298;2022-07-23T08:45:03;17.33;;;7.40;;
22937;SDS011;11634;42.734;23.298;2022-07-23T08:47:31;11.35;;;7.30;;
22937;SDS011;11634;42.734;23.298;2022-07-23T08:49:57;13.05;;;6.75;;
22937;SDS011;11634;42.734;23.298;2022-07-23T08:52:23;14.38;;;7.32;;
22937;SDS011;11634;42.734;23.298;2022-07-23T08:54:49;15.32;;;7.20;;
22937;SDS011;11634;42.734;23.298;2022-07-23T08:57:15;12.55;;;7.22;;
22937;SDS011;11634;42.734;23.298;2022-07-23T08:59:40;10.82;;;6.45;;
22937;SDS011;11634;42.734;23.298;2022-07-23T09:02:06;12.63;;;7.63;;
22937;SDS011;11634;42.734;23.298;2022-07-23T09:04:31;13.45;;;7.30;;
22937;SDS011;11634;42.734;23.298;2022-07-23T09:06:57;10.00;;;7.07;;
22937;SDS011;11634;42.734;23.298;2022-07-23T09:09:22;12.32;;;7.15;;
22937;SDS011;11634;42.734;23.298;2022-07-23T09:12:01;14.30;;;7.05;;
22937;SDS011;11634;42.734;23.298;2022-07-23T09:14:40;10.63;;;6.95;;
22937;SDS011;11634;42.734;23.298;2022-07-23T09:17:09;11.60;;;6.68;;
22937;SDS011;11634;42.734;23.298;2022-07-23T09:19:35;10.85;;;6.78;;
22937;SDS011;11634;42.734;23.298;2022-07-23T09:22:15;12.10;;;6.88;;
22937;SDS011;11634;42.734;23.298;2022-07-23T09:25:02;10.27;;;5.85;;
22937;SDS011;11634;42.734;23.298;2022-07-23T09:27:26;13.45;;;6.60;;
22937;SDS011;11634;42.734;23.298;2022-07-23T09:30:09;10.50;;;6.60;;
22937;SDS011;11634;42.734;23.298;2022-07-23T09:32:35;10.35;;;6.20;;
22937;SDS011;11634;42.734;23.298;2022-07-23T09:35:00;9.90;;;7.13;;
22937;SDS011;11634;42.734;23.298;2022-07-23T09:37:25;10.98;;;6.88;;
22937;SDS011;11634;42.734;23.298;2022-07-23T09:39:51;10.93;;;6.30;;
22937;SDS011;11634;42.734;23.298;2022-07-23T09:42:27;7.47;;;5.78;;
22937;SDS011;11634;42.734;23.298;2022-07-23T09:44:54;12.35;;;7.00;;
22937;SDS011;11634;42.734;23.298;2022-07-23T09:47:20;13.27;;;6.57;;
22937;SDS011;11634;42.734;23.298;2022-07-23T09:49:59;9.63;;;5.50;;
22937;SDS011;11634;42.734;23.298;2022-07-23T09:52:26;9.95;;;5.70;;
22937;SDS011;11634;42.734;23.298;2022-07-23T09:54:57;12.75;;;6.22;;
22937;SDS011;11634;42.734;23.298;2022-07-23T09:57:22;9.70;;;5.85;;
22937;SDS011;11634;42.734;23.298;2022-07-23T09:59:48;13.45;;;5.25;;
22937;SDS011;11634;42.734;23.298;2022-07-23T10:02:13;7.88;;;5.45;;
22937;SDS011;11634;42.734;23.298;2022-07-23T10:05:12;10.65;;;5.38;;
22937;SDS011;11634;42.734;23.298;2022-07-23T10:08:11;9.27;;;5.68;;
22937;SDS011;11634;42.734;23.298;2022-07-23T10:11:02;8.68;;;4.70;;
22937;SDS011;11634;42.734;23.298;2022-07-23T10:13:48;14.20;;;5.65;;
22937;SDS011;11634;42.734;23.298;2022-07-23T10:16:14;9.13;;;5.18;;
22937;SDS011;11634;42.734;23.298;2022-07-23T10:18:40;12.20;;;5.38;;
22937;SDS011;11634;42.734;23.298;2022-07-23T10:21:06;8.63;;;5.25;;
22937;SDS011;11634;42.734;23.298;2022-07-23T10:23:37;10.90;;;6.13;;
22937;SDS011;11634;42.734;23.298;2022-07-23T10:28:37;8.23;;;5.05;;
22937;SDS011;11634;42.734;23.298;2022-07-23T10:36:23;10.48;;;5.10;;
22937;SDS011;11634;42.734;23.298;2022-07-23T10:39:26;8.95;;;5.05;;
22937;SDS011;11634;42.734;23.298;2022-07-23T10:41:44;8.65;;;4.72;;
22937;SDS011;11634;42.734;23.298;2022-07-23T10:44:10;8.60;;;5.22;;
22937;SDS011;11634;42.734;23.298;2022-07-23T10:46:46;6.47;;;4.95;;
22937;SDS011;11634;42.734;23.298;2022-07-23T10:54:35;10.55;;;5.07;;
22937;SDS011;11634;42.734;23.298;2022-07-23T10:59:26;7.55;;;5.30;;
22937;SDS011;11634;42.734;23.298;2022-07-23T11:01:51;8.35;;;4.85;;
22937;SDS011;11634;42.734;23.298;2022-07-23T11:04:16;10.63;;;4.85;;
22937;SDS011;11634;42.734;23.298;2022-07-23T11:09:30;8.95;;;5.15;;
22937;SDS011;11634;42.734;23.298;2022-07-23T11:17:23;7.63;;;4.47;;
22937;SDS011;11634;42.734;23.298;2022-07-23T11:22:37;9.20;;;5.13;;
22937;SDS011;11634;42.734;23.298;2022-07-23T11:25:03;13.25;;;5.68;;
22937;SDS011;11634;42.734;23.298;2022-07-23T11:27:39;16.30;;;5.63;;
22937;SDS011;11634;42.734;23.298;2022-07-23T11:30:05;13.00;;;5.25;;
22937;SDS011;11634;42.734;23.298;2022-07-23T11:32:31;8.38;;;4.68;;
22937;SDS011;11634;42.734;23.298;2022-07-23T11:34:58;8.55;;;4.93;;
22937;SDS011;11634;42.734;23.298;2022-07-23T11:37:42;10.30;;;5.15;;
22937;SDS011;11634;42.734;23.298;2022-07-23T11:40:10;11.80;;;5.18;;
22937;SDS011;11634;42.734;23.298;2022-07-23T11:42:40;10.43;;;4.72;;
22937;SDS011;11634;42.734;23.298;2022-07-23T11:45:15;10.00;;;5.05;;
22937;SDS011;11634;42.734;23.298;2022-07-23T11:47:41;12.13;;;4.88;;
22937;SDS011;11634;42.734;23.298;2022-07-23T11:50:06;14.93;;;4.95;;
22937;SDS011;11634;42.734;23.298;2022-07-23T11:52:32;11.38;;;4.90;;
22937;SDS011;11634;42.734;23.298;2022-07-23T11:55:02;11.27;;;4.93;;
22937;SDS011;11634;42.734;23.298;2022-07-23T11:57:34;8.80;;;4.75;;
22937;SDS011;11634;42.734;23.298;2022-07-23T12:00:09;11.35;;;4.72;;
22937;SDS011;11634;42.734;23.298;2022-07-23T12:02:39;13.18;;;4.93;;
22937;SDS011;11634;42.734;23.298;2022-07-23T12:05:10;10.38;;;4.90;;
22937;SDS011;11634;42.734;23.298;2022-07-23T12:07:37;11.63;;;4.95;;
22937;SDS011;11634;42.734;23.298;2022-07-23T12:10:13;13.15;;;5.47;;
22937;SDS011;11634;42.734;23.298;2022-07-23T12:12:43;10.88;;;5.07;;
22937;SDS011;11634;42.734;23.298;2022-07-23T12:15:10;12.65;;;5.22;;
22937;SDS011;11634;42.734;23.298;2022-07-23T12:17:36;12.88;;;5.75;;
22937;SDS011;11634;42.734;23.298;2022-07-23T12:20:08;10.93;;;5.22;;
22937;SDS011;11634;42.734;23.298;2022-07-23T12:22:38;12.80;;;5.75;;
22937;SDS011;11634;42.734;23.298;2022-07-23T12:25:06;12.63;;;5.63;;
22937;SDS011;11634;42.734;23.298;2022-07-23T12:27:31;14.82;;;5.63;;
22937;SDS011;11634;42.734;23.298;2022-07-23T12:29:57;15.18;;;5.65;;
22937;SDS011;11634;42.734;23.298;2022-07-23T12:32:28;13.85;;;5.97;;
22937;SDS011;11634;42.734;23.298;2022-07-23T12:35:06;11.63;;;5.32;;
22937;SDS011;11634;42.734;23.298;2022-07-23T12:37:37;13.18;;;5.35;;
22937;SDS011;11634;42.734;23.298;2022-07-23T12:42:48;16.88;;;6.03;;
22937;SDS011;11634;42.734;23.298;2022-07-23T12:45:15;12.35;;;5.20;;
22937;SDS011;11634;42.734;23.298;2022-07-23T12:50:49;13.50;;;5.03;;
22937;SDS011;11634;42.734;23.298;2022-07-23T12:53:23;12.40;;;5.57;;
22937;SDS011;11634;42.734;23.298;2022-07-23T12:55:49;16.42;;;5.75;;
22937;SDS011;11634;42.734;23.298;2022-07-23T12:58:19;12.07;;;4.93;;
22937;SDS011;11634;42.734;23.298;2022-07-23T13:03:26;14.15;;;5.43;;
22937;SDS011;11634;42.734;23.298;2022-07-23T13:05:52;13.38;;;4.90;;
22937;SDS011;11634;42.734;23.298;2022-07-23T13:08:17;10.45;;;4.38;;
22937;SDS011;11634;42.734;23.298;2022-07-23T13:10:43;13.27;;;4.95;;
22937;SDS011;11634;42.734;23.298;2022-07-23T13:13:12;14.38;;;4.68;;
22937;SDS011;11634;42.734;23.298;2022-07-23T13:15:37;14.38;;;4.93;;
22937;SDS011;11634;42.734;23.298;2022-07-23T13:18:03;11.38;;;4.75;;
22937;SDS011;11634;42.734;23.298;2022-07-23T13:20:28;9.90;;;4.18;;
22937;SDS011;11634;42.734;23.298;2022-07-23T13:22:54;13.57;;;5.03;;
22937;SDS011;11634;42.734;23.298;2022-07-23T13:25:19;10.43;;;4.47;;
22937;SDS011;11634;42.734;23.298;2022-07-23T13:27:44;12.68;;;4.38;;
22937;SDS011;11634;42.734;23.298;2022-07-23T13:30:10;16.23;;;4.60;;
22937;SDS011;11634;42.734;23.298;2022-07-23T13:32:36;11.57;;;4.40;;
22937;SDS011;11634;42.734;23.298;2022-07-23T13:35:02;12.00;;;4.45;;
22937;SDS011;11634;42.734;23.298;2022-07-23T13:37:27;12.55;;;4.40;;
22937;SDS011;11634;42.734;23.298;2022-07-23T13:39:52;11.23;;;4.75;;
22937;SDS011;11634;42.734;23.298;2022-07-23T13:42:18;8.10;;;4.55;;
22937;SDS011;11634;42.734;23.298;2022-07-23T13:44:43;20.13;;;4.85;;
22937;SDS011;11634;42.734;23.298;2022-07-23T13:47:09;13.75;;;4.50;;
22937;SDS011;11634;42.734;23.298;2022-07-23T13:49:34;10.55;;;3.97;;
22937;SDS011;11634;42.734;23.298;2022-07-23T13:52:00;8.82;;;4.60;;
22937;SDS011;11634;42.734;23.298;2022-07-23T13:54:25;9.00;;;4.18;;
22937;SDS011;11634;42.734;23.298;2022-07-23T13:56:51;8.40;;;4.28;;
22937;SDS011;11634;42.734;23.298;2022-07-23T13:59:17;13.40;;;4.65;;
22937;SDS011;11634;42.734;23.298;2022-07-23T14:01:43;10.13;;;4.20;;
22937;SDS011;11634;42.734;23.298;2022-07-23T14:04:08;13.90;;;4.30;;
22937;SDS011;11634;42.734;23.298;2022-07-23T14:06:34;10.55;;;4.45;;
22937;SDS011;11634;42.734;23.298;2022-07-23T14:08:59;6.82;;;4.25;;
22937;SDS011;11634;42.734;23.298;2022-07-23T14:11:25;11.70;;;4.47;;
22937;SDS011;11634;42.734;23.298;2022-07-23T14:13:50;8.85;;;4.20;;
22937;SDS011;11634;42.734;23.298;2022-07-23T14:16:16;12.73;;;4.10;;
22937;SDS011;11634;42.734;23.298;2022-07-23T14:18:41;14.05;;;4.43;;
22937;SDS011;11634;42.734;23.298;2022-07-23T14:21:06;8.18;;;4.38;;
22937;SDS011;11634;42.734;23.298;2022-07-23T14:23:32;15.90;;;4.72;;
22937;SDS011;11634;42.734;23.298;2022-07-23T14:25:57;11.00;;;4.75;;
22937;SDS011;11634;42.734;23.298;2022-07-23T14:28:23;8.57;;;4.38;;
22937;SDS011;11634;42.734;23.298;2022-07-23T14:30:48;9.07;;;4.47;;
22937;SDS011;11634;42.734;23.298;2022-07-23T14:33:13;8.95;;;4.20;;
22937;SDS011;11634;42.734;23.298;2022-07-23T14:35:40;11.82;;;4.80;;
22937;SDS011;11634;42.734;23.298;2022-07-23T14:38:06;10.93;;;5.93;;
22937;SDS011;11634;42.734;23.298;2022-07-23T14:40:31;10.25;;;4.88;;
22937;SDS011;11634;42.734;23.298;2022-07-23T14:42:56;11.00;;;4.78;;
22937;SDS011;11634;42.734;23.298;2022-07-23T14:45:22;9.35;;;4.28;;
22937;SDS011;11634;42.734;23.298;2022-07-23T14:47:47;9.43;;;4.70;;
22937;SDS011;11634;42.734;23.298;2022-07-23T14:50:13;12.65;;;4.45;;
22937;SDS011;11634;42.734;23.298;2022-07-23T14:52:38;10.05;;;4.65;;
22937;SDS011;11634;42.734;23.298;2022-07-23T14:55:04;10.00;;;3.90;;
22937;SDS011;11634;42.734;23.298;2022-07-23T14:57:29;8.80;;;4.70;;
22937;SDS011;11634;42.734;23.298;2022-07-23T14:59:55;8.32;;;4.50;;
22937;SDS011;11634;42.734;23.298;2022-07-23T15:02:20;9.55;;;4.50;;